Aviation Digital Data Service (ADDS)

Output produced by TAFs form (0232 UTC 23 January 2017)
found at http://aviationweather.gov/adds/tafs/
 
KMAF 222320Z 2300/2324 29012KT P6SM SKC 
     FM231800 24014G20KT P6SM SCT250